createdAt,value
2022-08-17T00:00:35.006Z,18.60
2022-08-17T00:03:10.804Z,20.40
2022-08-17T00:05:45.151Z,19.97
2022-08-17T00:08:14.729Z,21.10
2022-08-17T00:10:44.439Z,21.57
2022-08-17T00:13:15.151Z,25.00
2022-08-17T00:15:43.992Z,23.17
2022-08-17T00:19:06.275Z,23.70
2022-08-17T00:21:04.282Z,26.10
2022-08-17T00:23:39.110Z,25.77
2022-08-17T00:26:13.600Z,25.57
2022-08-17T00:28:42.439Z,26.97
2022-08-17T00:31:12.617Z,24.70
2022-08-17T00:33:42.487Z,24.47
2022-08-17T00:36:12.258Z,23.53
2022-08-17T00:38:40.756Z,23.70
2022-08-17T00:41:11.363Z,24.37
2022-08-17T00:43:44.075Z,24.47
2022-08-17T00:46:14.494Z,24.87
2022-08-17T00:48:43.043Z,20.87
2022-08-17T00:51:19.502Z,21.40
2022-08-17T00:53:54.071Z,21.50
2022-08-17T00:56:29.575Z,19.93
2022-08-17T00:58:58.047Z,18.67
2022-08-17T01:01:27.362Z,20.37
2022-08-17T01:03:59.997Z,21.67
2022-08-17T01:06:30.604Z,22.17
2022-08-17T01:09:00.653Z,22.77
2022-08-17T01:11:30.682Z,23.27
2022-08-17T01:13:59.018Z,23.30
2022-08-17T01:16:29.498Z,24.67
2022-08-17T01:19:01.274Z,22.10
2022-08-17T01:21:47.615Z,23.07
2022-08-17T01:24:17.755Z,21.03
2022-08-17T01:26:46.540Z,20.53
2022-08-17T01:29:14.943Z,20.93
2022-08-17T01:31:47.285Z,21.73
2022-08-17T01:34:18.171Z,21.27
2022-08-17T01:36:49.359Z,20.47
2022-08-17T01:39:24.984Z,20.57
2022-08-17T01:41:57.286Z,21.63
2022-08-17T01:44:28.993Z,23.97
2022-08-17T01:46:57.238Z,24.43
2022-08-17T01:49:25.430Z,24.23
2022-08-17T01:51:53.594Z,22.57
2022-08-17T01:54:24.247Z,22.77
2022-08-17T01:56:52.837Z,22.70
2022-08-17T01:59:21.535Z,22.97
2022-08-17T02:01:50.903Z,23.67
2022-08-17T02:04:19.145Z,23.70
2022-08-17T02:06:54.148Z,26.07
2022-08-17T02:09:26.279Z,23.13
2022-08-17T02:12:37.785Z,23.77
2022-08-17T02:14:48.676Z,23.77
2022-08-17T02:17:16.727Z,22.90
2022-08-17T02:19:44.803Z,21.33
2022-08-17T02:22:13.103Z,21.40
2022-08-17T02:25:00.522Z,19.77
2022-08-17T02:27:30.505Z,20.00
2022-08-17T02:29:58.599Z,20.90
2022-08-17T02:32:28.654Z,21.40
2022-08-17T02:34:57.445Z,23.07
2022-08-17T02:37:26.393Z,24.33
2022-08-17T02:39:58.387Z,24.63
2022-08-17T02:42:31.438Z,26.63
2022-08-17T02:45:00.630Z,27.07
2022-08-17T02:47:28.871Z,29.90
2022-08-17T02:49:56.986Z,30.10
2022-08-17T02:52:42.362Z,31.60
2022-08-17T02:55:17.206Z,30.63
2022-08-17T02:57:45.629Z,29.13
2022-08-17T03:00:17.928Z,30.80
2022-08-17T03:02:46.560Z,32.60
2022-08-17T03:05:17.703Z,31.50
2022-08-17T03:07:46.032Z,30.27
2022-08-17T03:10:16.497Z,30.47
2022-08-17T03:12:45.543Z,30.50
2022-08-17T03:15:15.993Z,33.23
2022-08-17T03:17:44.536Z,34.10
2022-08-17T03:20:14.170Z,34.03
2022-08-17T03:22:46.854Z,32.33
2022-08-17T03:25:24.947Z,31.13
2022-08-17T03:27:53.423Z,32.00
2022-08-17T03:30:22.635Z,34.20
2022-08-17T03:32:53.139Z,32.63
2022-08-17T03:35:24.720Z,29.20
2022-08-17T03:38:00.210Z,29.33
2022-08-17T03:40:55.159Z,29.83
2022-08-17T03:43:22.207Z,30.50
2022-08-17T03:46:11.061Z,32.10
2022-08-17T03:49:14.587Z,32.57
2022-08-17T03:52:00.532Z,33.80
2022-08-17T03:54:45.902Z,34.40
2022-08-17T03:57:15.463Z,35.17
2022-08-17T03:59:45.018Z,31.73
2022-08-17T04:02:17.447Z,34.83
2022-08-17T04:04:45.970Z,32.53
2022-08-17T04:07:14.267Z,34.13
2022-08-17T04:09:42.870Z,31.87
2022-08-17T04:12:11.023Z,35.70
2022-08-17T04:14:52.625Z,36.53
2022-08-17T04:17:24.641Z,36.27
2022-08-17T04:19:53.225Z,33.00
2022-08-17T04:22:32.737Z,33.10
2022-08-17T04:25:05.365Z,31.23
2022-08-17T04:27:33.741Z,32.97
2022-08-17T04:30:03.333Z,34.23
2022-08-17T04:33:05.086Z,33.13
2022-08-17T04:35:21.272Z,31.23
2022-08-17T04:37:49.632Z,33.70
2022-08-17T04:40:35.919Z,35.73
2022-08-17T04:43:07.210Z,32.50
2022-08-17T04:45:55.295Z,32.17
2022-08-17T04:48:29.954Z,32.53
2022-08-17T04:51:06.928Z,32.97
2022-08-17T04:53:34.986Z,31.07
2022-08-17T04:56:03.242Z,29.60
2022-08-17T04:58:31.267Z,30.97
2022-08-17T05:01:01.389Z,29.23
2022-08-17T05:03:29.630Z,30.00
2022-08-17T05:05:57.706Z,28.53
2022-08-17T05:08:25.803Z,28.00
2022-08-17T05:10:53.994Z,27.23
2022-08-17T05:13:25.073Z,31.03
2022-08-17T05:15:56.387Z,30.20
2022-08-17T05:18:26.016Z,32.30
2022-08-17T05:20:54.822Z,32.33
2022-08-17T05:23:25.617Z,31.47
2022-08-17T05:25:56.301Z,28.37
2022-08-17T05:28:27.565Z,29.73
2022-08-17T05:30:57.953Z,31.50
2022-08-17T05:33:29.665Z,31.83
2022-08-17T05:35:59.817Z,32.10
2022-08-17T05:38:30.124Z,30.20
2022-08-17T05:40:59.569Z,32.10
2022-08-17T05:43:29.711Z,29.67
2022-08-17T05:46:03.563Z,32.80
2022-08-17T05:48:39.339Z,29.87
2022-08-17T05:51:37.523Z,32.77
2022-08-17T05:54:16.466Z,33.77
2022-08-17T05:57:00.842Z,30.93
2022-08-17T05:59:36.422Z,29.47
2022-08-17T06:02:15.892Z,28.50
2022-08-17T06:05:03.615Z,25.27
2022-08-17T06:07:38.083Z,29.60
2022-08-17T06:10:13.528Z,28.73
2022-08-17T06:12:50.979Z,29.60
2022-08-17T06:15:28.823Z,27.07
2022-08-17T06:18:00.013Z,30.53
2022-08-17T06:20:35.174Z,26.37
2022-08-17T06:23:06.471Z,25.70
2022-08-17T06:25:39.141Z,29.23
2022-08-17T06:28:13.845Z,30.73
2022-08-17T06:31:00.602Z,28.43
2022-08-17T06:33:34.169Z,26.43
2022-08-17T06:36:15.927Z,29.53
2022-08-17T06:38:51.022Z,29.37
2022-08-17T06:41:26.787Z,23.80
2022-08-17T06:44:10.813Z,28.53
2022-08-17T06:46:41.383Z,29.33
2022-08-17T06:49:19.837Z,29.30
2022-08-17T06:51:53.270Z,32.07
2022-08-17T06:54:28.201Z,29.83
2022-08-17T06:57:01.696Z,30.77
2022-08-17T06:59:54.339Z,28.87
2022-08-17T07:02:52.599Z,26.00
2022-08-17T07:05:25.166Z,30.90
2022-08-17T07:08:04.092Z,30.50
2022-08-17T07:10:43.420Z,30.47
2022-08-17T07:13:34.909Z,29.03
2022-08-17T07:16:12.519Z,24.80
2022-08-17T07:18:40.668Z,30.47
2022-08-17T07:21:21.776Z,25.30
2022-08-17T07:24:08.967Z,30.83
2022-08-17T07:26:38.873Z,29.33
2022-08-17T07:29:07.098Z,28.50
2022-08-17T07:31:35.179Z,29.83
2022-08-17T07:34:07.970Z,28.03
2022-08-17T07:36:36.068Z,26.47
2022-08-17T07:39:05.854Z,31.63
2022-08-17T07:41:57.555Z,26.90
2022-08-17T07:44:28.070Z,26.80
2022-08-17T07:47:14.178Z,28.20
2022-08-17T07:49:46.106Z,27.27
2022-08-17T07:52:51.828Z,25.73
2022-08-17T07:55:31.566Z,22.87
2022-08-17T07:58:00.544Z,22.10
2022-08-17T08:00:31.994Z,25.33
2022-08-17T08:03:26.199Z,21.03
2022-08-17T08:05:57.572Z,22.93
2022-08-17T08:08:44.609Z,23.93
2022-08-17T08:11:16.373Z,21.40
2022-08-17T08:13:46.032Z,19.70
2022-08-17T08:16:25.327Z,20.83
2022-08-17T08:18:57.591Z,22.97
2022-08-17T08:21:36.725Z,23.23
2022-08-17T08:24:21.597Z,18.47
2022-08-17T08:26:56.671Z,22.07
2022-08-17T08:29:32.230Z,18.63
2022-08-17T08:32:08.081Z,18.03
2022-08-17T08:35:00.726Z,19.13
2022-08-17T08:37:42.881Z,17.70
2022-08-17T08:40:30.020Z,16.07
2022-08-17T08:43:12.533Z,15.43
2022-08-17T08:45:49.352Z,14.90
2022-08-17T08:48:56.641Z,13.10
2022-08-17T08:51:27.832Z,10.23
2022-08-17T08:54:04.605Z,12.43
2022-08-17T08:56:38.941Z,12.17
2022-08-17T08:59:20.296Z,10.10
2022-08-17T09:01:59.770Z,9.93
2022-08-17T09:05:13.001Z,10.30
2022-08-17T09:07:45.287Z,11.60
2022-08-17T09:10:21.612Z,9.33
2022-08-17T09:13:09.168Z,8.83
2022-08-17T09:15:44.070Z,8.70
2022-08-17T09:19:01.609Z,9.13
2022-08-17T09:21:11.276Z,7.73
2022-08-17T09:23:44.727Z,7.97
2022-08-17T09:26:22.767Z,8.80
2022-08-17T09:28:54.059Z,7.23
2022-08-17T09:31:33.331Z,8.23
2022-08-17T09:34:06.494Z,7.57
2022-08-17T09:36:41.771Z,8.50
2022-08-17T09:39:15.071Z,6.80
2022-08-17T09:41:49.173Z,7.10
2022-08-17T09:44:27.817Z,7.40
2022-08-17T09:47:06.090Z,7.10
2022-08-17T09:49:39.277Z,7.63
2022-08-17T09:52:15.035Z,7.10
2022-08-17T09:54:47.210Z,6.97
2022-08-17T09:57:32.596Z,7.43
2022-08-17T10:00:16.975Z,6.00
2022-08-17T10:03:17.968Z,6.87
2022-08-17T10:05:55.034Z,6.97
2022-08-17T10:08:33.867Z,6.40
2022-08-17T10:11:19.998Z,6.93
2022-08-17T10:13:56.277Z,6.50
2022-08-17T10:16:35.369Z,6.33
2022-08-17T10:19:14.696Z,6.90
2022-08-17T10:22:32.580Z,6.23
2022-08-17T10:25:23.263Z,7.20
2022-08-17T10:27:55.507Z,7.33
2022-08-17T10:30:27.534Z,7.10
2022-08-17T10:32:59.169Z,7.53
2022-08-17T10:35:36.086Z,8.13
2022-08-17T10:38:40.004Z,7.20
2022-08-17T10:41:20.989Z,7.73
2022-08-17T10:44:36.935Z,7.17
2022-08-17T10:47:10.457Z,7.40
2022-08-17T10:49:47.423Z,7.30
2022-08-17T10:52:49.293Z,7.47
2022-08-17T10:55:21.046Z,6.80
2022-08-17T10:57:51.216Z,7.10
2022-08-17T11:00:57.616Z,7.17
2022-08-17T11:03:27.570Z,6.97
2022-08-17T11:06:07.030Z,6.67
2022-08-17T11:08:59.510Z,6.23
2022-08-17T11:12:02.577Z,6.13
2022-08-17T11:14:43.963Z,6.10
2022-08-17T11:17:45.630Z,5.80
2022-08-17T11:20:38.709Z,6.10
2022-08-17T11:23:23.875Z,5.70
2022-08-17T11:25:54.443Z,5.80
2022-08-17T11:28:28.013Z,5.53
2022-08-17T11:30:59.029Z,5.57
2022-08-17T11:33:53.910Z,5.40
2022-08-17T11:36:34.696Z,5.60
2022-08-17T11:39:07.722Z,5.13
2022-08-17T11:41:48.872Z,5.30
2022-08-17T11:44:37.511Z,5.33
2022-08-17T11:47:32.997Z,5.60
2022-08-17T11:50:49.837Z,6.00
2022-08-17T11:54:03.607Z,5.10
2022-08-17T11:56:46.506Z,5.37
2022-08-17T11:59:51.761Z,5.40
2022-08-17T12:02:38.815Z,5.60
2022-08-17T12:05:34.978Z,5.20
2022-08-17T12:08:17.635Z,4.90
2022-08-17T12:10:59.363Z,5.40
2022-08-17T12:13:34.682Z,5.27
2022-08-17T12:16:09.892Z,5.57
2022-08-17T12:18:42.107Z,5.30
2022-08-17T12:21:32.977Z,5.70
2022-08-17T12:24:07.459Z,5.47
2022-08-17T12:26:37.235Z,5.40
2022-08-17T12:29:09.273Z,5.53
2022-08-17T12:31:48.574Z,5.40
2022-08-17T12:34:20.567Z,5.50
2022-08-17T12:36:51.572Z,5.17
2022-08-17T12:39:22.471Z,5.17
2022-08-17T12:42:02.018Z,4.90
2022-08-17T12:44:33.176Z,5.57
2022-08-17T12:47:04.656Z,5.27
2022-08-17T12:49:36.940Z,5.10
2022-08-17T12:52:13.596Z,4.90
2022-08-17T12:54:59.641Z,5.60
2022-08-17T12:57:33.368Z,5.17
2022-08-17T13:00:09.199Z,5.00
2022-08-17T13:02:45.013Z,5.30
2022-08-17T13:05:23.118Z,4.90
2022-08-17T13:07:53.099Z,5.07
2022-08-17T13:10:32.229Z,4.97
2022-08-17T13:13:05.938Z,4.80
2022-08-17T13:15:43.258Z,4.80
2022-08-17T13:18:39.499Z,4.90
2022-08-17T13:21:22.076Z,5.50
2022-08-17T13:24:02.030Z,4.87
2022-08-17T13:26:33.897Z,5.00
2022-08-17T13:29:03.574Z,4.90
2022-08-17T13:31:52.464Z,4.97
2022-08-17T13:35:08.312Z,4.83
2022-08-17T13:37:30.675Z,5.13
2022-08-17T13:40:00.858Z,5.20
2022-08-17T13:42:52.023Z,4.50
2022-08-17T13:45:43.930Z,5.00
2022-08-17T13:48:23.808Z,4.97
2022-08-17T13:51:16.482Z,5.30
2022-08-17T13:53:59.222Z,4.80
2022-08-17T13:56:39.185Z,4.43
2022-08-17T13:59:11.046Z,4.93
2022-08-17T14:01:42.075Z,4.83
2022-08-17T14:04:11.648Z,5.20
2022-08-17T14:06:54.141Z,4.87
2022-08-17T14:09:29.777Z,4.60
2022-08-17T14:12:00.438Z,5.53
2022-08-17T14:14:29.210Z,5.40
2022-08-17T14:16:57.986Z,4.97
2022-08-17T14:19:26.943Z,5.40
2022-08-17T14:21:56.501Z,4.77
2022-08-17T14:24:31.069Z,4.70
2022-08-17T14:27:00.288Z,4.80
2022-08-17T14:29:30.218Z,4.60
2022-08-17T14:31:59.185Z,4.80
2022-08-17T14:34:27.314Z,4.67
2022-08-17T14:36:56.448Z,4.57
2022-08-17T14:39:26.030Z,4.30
2022-08-17T14:41:54.263Z,5.03
2022-08-17T14:44:22.318Z,4.90
2022-08-17T14:46:50.513Z,4.30
2022-08-17T14:49:20.628Z,4.33
2022-08-17T14:51:49.503Z,5.13
2022-08-17T14:54:32.849Z,5.07
2022-08-17T14:57:22.856Z,5.07
2022-08-17T14:59:54.618Z,5.20
2022-08-17T15:02:29.909Z,5.13
2022-08-17T15:05:00.660Z,4.97
2022-08-17T15:07:30.770Z,4.90
2022-08-17T15:10:00.765Z,4.97
2022-08-17T15:12:34.233Z,5.30
2022-08-17T15:15:04.946Z,5.40
2022-08-17T15:17:44.678Z,5.00
2022-08-17T15:20:16.639Z,5.10
2022-08-17T15:22:49.334Z,5.17
2022-08-17T15:25:18.890Z,5.40
2022-08-17T15:27:48.310Z,5.17
2022-08-17T15:30:16.541Z,5.00
2022-08-17T15:32:50.983Z,5.67
2022-08-17T15:35:27.929Z,5.13
2022-08-17T15:38:04.560Z,5.00
2022-08-17T15:40:36.609Z,5.30
2022-08-17T15:43:07.311Z,5.57
2022-08-17T15:45:35.371Z,4.93
2022-08-17T15:48:03.690Z,5.40
2022-08-17T15:50:32.067Z,5.67
2022-08-17T15:53:01.758Z,5.87
2022-08-17T15:55:32.490Z,5.70
2022-08-17T15:58:00.750Z,5.47
2022-08-17T16:00:30.433Z,5.63
2022-08-17T16:03:47.027Z,5.80
2022-08-17T16:05:49.859Z,5.70
2022-08-17T16:08:21.311Z,5.30
2022-08-17T16:10:50.588Z,5.73
2022-08-17T16:13:19.919Z,6.07
2022-08-17T16:15:57.191Z,5.47
2022-08-17T16:18:30.741Z,5.93
2022-08-17T16:21:19.861Z,5.50
2022-08-17T16:23:49.135Z,5.73
2022-08-17T16:26:17.974Z,6.17
2022-08-17T16:28:46.792Z,5.80
2022-08-17T16:31:16.629Z,5.53
2022-08-17T16:34:15.775Z,5.40
2022-08-17T16:36:33.403Z,5.70
2022-08-17T16:39:01.587Z,5.33
2022-08-17T16:41:45.459Z,6.00
2022-08-17T16:44:15.306Z,5.40
2022-08-17T16:46:46.156Z,6.00
2022-08-17T16:49:37.186Z,5.93
2022-08-17T16:52:03.959Z,5.80
2022-08-17T16:54:32.612Z,5.90
2022-08-17T16:57:00.667Z,6.40
2022-08-17T16:59:31.240Z,6.03
2022-08-17T17:02:10.749Z,6.60
2022-08-17T17:04:45.988Z,6.60
2022-08-17T17:07:33.779Z,5.93
2022-08-17T17:10:06.578Z,7.07
2022-08-17T17:13:01.430Z,7.33
2022-08-17T17:15:28.141Z,6.67
2022-08-17T17:18:06.995Z,6.93
2022-08-17T17:20:41.431Z,7.07
2022-08-17T17:23:17.383Z,6.80
2022-08-17T17:26:00.049Z,7.73
2022-08-17T17:28:38.606Z,7.80
2022-08-17T17:31:13.587Z,7.40
2022-08-17T17:33:48.230Z,7.77
2022-08-17T17:36:27.224Z,7.43
2022-08-17T17:39:00.190Z,7.63
2022-08-17T17:41:33.882Z,7.80
2022-08-17T17:44:05.830Z,7.83
2022-08-17T17:46:39.315Z,7.77
2022-08-17T17:49:10.538Z,8.57
2022-08-17T17:52:07.821Z,8.70
2022-08-17T17:54:51.369Z,8.17
2022-08-17T17:57:28.287Z,8.60
2022-08-17T18:00:03.539Z,8.17
2022-08-17T18:02:52.643Z,7.87
2022-08-17T18:05:49.312Z,5.13
2022-08-17T18:08:34.277Z,4.73
2022-08-17T18:11:23.947Z,4.00
2022-08-17T18:14:14.544Z,3.87
2022-08-17T18:16:43.288Z,4.63
2022-08-17T18:19:14.033Z,3.63
2022-08-17T18:21:48.210Z,3.80
2022-08-17T18:24:16.253Z,4.87
2022-08-17T18:26:55.170Z,5.27
2022-08-17T18:29:37.946Z,6.10
2022-08-17T18:32:19.583Z,6.00
2022-08-17T18:34:50.784Z,7.20
2022-08-17T18:37:33.706Z,6.43
2022-08-17T18:40:24.507Z,6.07
2022-08-17T18:43:09.755Z,6.80
2022-08-17T18:45:42.415Z,7.70
2022-08-17T18:48:28.408Z,7.63
2022-08-17T18:50:59.532Z,6.60
2022-08-17T18:53:35.950Z,6.63
2022-08-17T18:56:24.350Z,6.87
2022-08-17T18:58:59.534Z,6.60
2022-08-17T19:01:42.071Z,6.33
2022-08-17T19:04:35.583Z,6.10
2022-08-17T19:07:08.462Z,5.90
2022-08-17T19:09:43.241Z,5.30
2022-08-17T19:12:17.382Z,5.57
2022-08-17T19:14:45.506Z,4.83
2022-08-17T19:17:22.280Z,4.83
2022-08-17T19:19:57.549Z,4.47
2022-08-17T19:22:31.076Z,5.77
2022-08-17T19:25:11.873Z,4.77
2022-08-17T19:27:57.425Z,4.87
2022-08-17T19:30:27.746Z,5.07
2022-08-17T19:32:58.337Z,5.20
2022-08-17T19:35:32.827Z,5.63
2022-08-17T19:38:12.877Z,5.17
2022-08-17T19:40:56.192Z,4.53
2022-08-17T19:43:34.364Z,4.20
2022-08-17T19:46:08.443Z,4.17
2022-08-17T19:48:46.587Z,4.00
2022-08-17T19:51:20.588Z,3.63
2022-08-17T19:54:05.296Z,3.17
2022-08-17T19:56:45.128Z,3.00
2022-08-17T19:59:21.147Z,3.20
2022-08-17T20:01:53.852Z,2.97
2022-08-17T20:04:35.490Z,2.60
2022-08-17T20:07:11.977Z,2.13
2022-08-17T20:09:44.337Z,2.33
2022-08-17T20:12:18.168Z,2.17
2022-08-17T20:14:53.535Z,2.17
2022-08-17T20:17:28.638Z,1.90
2022-08-17T20:20:02.712Z,2.10
2022-08-17T20:22:36.827Z,2.00
2022-08-17T20:25:29.942Z,2.50
2022-08-17T20:28:07.028Z,2.17
2022-08-17T20:30:38.755Z,2.30
2022-08-17T20:33:12.502Z,2.90
2022-08-17T20:36:00.158Z,2.70
2022-08-17T20:38:43.425Z,2.50
2022-08-17T20:41:14.909Z,2.80
2022-08-17T20:43:51.098Z,2.67
2022-08-17T20:46:51.552Z,2.80
2022-08-17T20:49:25.959Z,2.80
2022-08-17T20:52:02.577Z,2.53
2022-08-17T20:54:44.743Z,2.60
2022-08-17T20:57:48.603Z,2.90
2022-08-17T21:00:42.561Z,2.80
2022-08-17T21:03:51.889Z,3.70
2022-08-17T21:06:25.264Z,3.50
2022-08-17T21:08:59.425Z,4.00
2022-08-17T21:12:04.168Z,4.20
2022-08-17T21:14:44.434Z,3.83
2022-08-17T21:17:41.907Z,3.87
2022-08-17T21:20:23.867Z,4.47
2022-08-17T21:23:01.466Z,3.80
2022-08-17T21:25:55.283Z,4.13
2022-08-17T21:28:34.594Z,5.43
2022-08-17T21:31:09.117Z,5.10
2022-08-17T21:33:40.777Z,5.07
2022-08-17T21:36:25.669Z,5.57
2022-08-17T21:39:01.359Z,5.37
2022-08-17T21:41:33.427Z,5.37
2022-08-17T21:44:11.898Z,8.13
2022-08-17T21:46:42.995Z,7.43
2022-08-17T21:49:19.349Z,8.00
2022-08-17T21:51:50.367Z,8.90
2022-08-17T21:54:31.645Z,8.73
2022-08-17T21:57:02.495Z,9.13
2022-08-17T21:59:34.592Z,10.90
2022-08-17T22:02:05.651Z,9.30
2022-08-17T22:04:37.068Z,11.77
2022-08-17T22:07:08.467Z,12.00
2022-08-17T22:09:42.840Z,11.00
2022-08-17T22:12:13.442Z,13.23
2022-08-17T22:14:52.960Z,14.53
2022-08-17T22:17:25.064Z,14.53
2022-08-17T22:19:57.357Z,15.73
2022-08-17T22:22:32.351Z,15.30
2022-08-17T22:25:04.435Z,14.57
2022-08-17T22:27:48.540Z,17.00
2022-08-17T22:30:27.514Z,13.70
2022-08-17T22:32:56.001Z,15.10
2022-08-17T22:35:36.543Z,13.93
2022-08-17T22:38:27.601Z,13.60
2022-08-17T22:41:15.086Z,14.70
2022-08-17T22:43:44.733Z,14.90
2022-08-17T22:46:14.867Z,13.70
2022-08-17T22:48:50.140Z,12.80
2022-08-17T22:51:23.835Z,14.67
2022-08-17T22:54:11.158Z,13.07
2022-08-17T22:56:56.763Z,13.10
2022-08-17T22:59:46.262Z,12.37
2022-08-17T23:02:25.826Z,11.67
2022-08-17T23:04:57.332Z,13.23
2022-08-17T23:07:26.742Z,11.43
2022-08-17T23:09:55.345Z,12.97
2022-08-17T23:12:27.373Z,12.23
2022-08-17T23:15:01.472Z,12.77
2022-08-17T23:17:33.912Z,10.93
2022-08-17T23:20:06.363Z,12.77
2022-08-17T23:22:37.416Z,13.17
2022-08-17T23:25:26.826Z,12.00
2022-08-17T23:27:55.228Z,14.23
2022-08-17T23:30:25.385Z,12.40
2022-08-17T23:32:54.264Z,12.27
2022-08-17T23:35:39.616Z,12.20
2022-08-17T23:38:10.657Z,11.83
2022-08-17T23:40:39.882Z,12.00
2022-08-17T23:43:23.444Z,11.97
2022-08-17T23:45:53.772Z,10.77
2022-08-17T23:48:35.877Z,10.63
2022-08-17T23:51:09.120Z,12.07
2022-08-17T23:53:43.975Z,11.40
2022-08-17T23:56:12.118Z,10.63
2022-08-17T23:58:42.129Z,11.10
